<?xml version="1.0" encoding="UTF-8" standalone="no" ?>
<gpx xmlns="http://www.topografix.com/GPX/1/1" xmlns:xsi="http://www.w3.org/2001/XMLSchema-instance" xsi:schemaLocation="http://www.topografix.com/GPX/1/1 http://www.topografix.com/GPX/1/1/gpx.xsd" version="1.1" creator="VisuGPX - https://www.visugpx.com">
  <metadata>
    <name>Vacances 2021</name>
  </metadata>
  <trk>
    <name><![CDATA[Journal actif: 2021-07-23 10:41]]></name>
    <trkseg>
      <trkpt lat="49.25536" lon="6.13098">
        <ele>162.12</ele>
        <time>2021-07-23T12:41:42Z</time>
      </trkpt>
      <trkpt lat="49.25529" lon="6.1317">
        <ele>162.12</ele>
        <time>2021-07-23T12:41:52Z</time>
      </trkpt>
      <trkpt lat="49.25511" lon="6.13369">
        <ele>161.16</ele>
        <time>2021-07-23T12:42:08Z</time>
      </trkpt>
      <trkpt lat="49.25502" lon="6.1346">
        <ele>160.2</ele>
        <time>2021-07-23T12:42:15Z</time>
      </trkpt>
      <trkpt lat="49.25498" lon="6.13478">
        <ele>160.2</ele>
        <time>2021-07-23T12:42:16Z</time>
      </trkpt>
      <trkpt lat="49.25498" lon="6.13478">
        <ele>160.2</ele>
        <time>2021-07-23T12:42:17Z</time>
      </trkpt>
      <trkpt lat="49.25493" lon="6.13491">
        <ele>160.2</ele>
        <time>2021-07-23T12:42:18Z</time>
      </trkpt>
      <trkpt lat="49.25491" lon="6.13497">
        <ele>159.72</ele>
        <time>2021-07-23T12:42:19Z</time>
      </trkpt>
      <trkpt lat="49.25491" lon="6.13497">
        <ele>159.72</ele>
        <time>2021-07-23T12:42:20Z</time>
      </trkpt>
      <trkpt lat="49.25474" lon="6.13494">
        <ele>159.72</ele>
        <time>2021-07-23T12:42:21Z</time>
      </trkpt>
      <trkpt lat="49.25467" lon="6.13493">
        <ele>159.72</ele>
        <time>2021-07-23T12:42:22Z</time>
      </trkpt>
      <trkpt lat="49.2546" lon="6.13492">
        <ele>159.72</ele>
        <time>2021-07-23T12:42:23Z</time>
      </trkpt>
      <trkpt lat="49.25451" lon="6.13496">
        <ele>160.68</ele>
        <time>2021-07-23T12:42:24Z</time>
      </trkpt>
      <trkpt lat="49.25445" lon="6.13501">
        <ele>160.68</ele>
        <time>2021-07-23T12:42:25Z</time>
      </trkpt>
      <trkpt lat="49.25445" lon="6.13501">
        <ele>160.68</ele>
        <time>2021-07-23T12:42:26Z</time>
      </trkpt>
      <trkpt lat="49.25435" lon="6.13515">
        <ele>160.68</ele>
        <time>2021-07-23T12:42:28Z</time>
      </trkpt>
      <trkpt lat="49.25423" lon="6.13519">
        <ele>160.68</ele>
        <time>2021-07-23T12:42:29Z</time>
      </trkpt>
      <trkpt lat="49.25416" lon="6.13515">
        <ele>160.2</ele>
        <time>2021-07-23T12:42:30Z</time>
      </trkpt>
      <trkpt lat="49.25373" lon="6.13512">
        <ele>161.16</ele>
        <time>2021-07-23T12:42:35Z</time>
      </trkpt>
      <trkpt lat="49.25363" lon="6.13515">
        <ele>161.16</ele>
        <time>2021-07-23T12:42:36Z</time>
      </trkpt>
      <trkpt lat="49.25236" lon="6.13567">
        <ele>162.6</ele>
        <time>2021-07-23T12:42:48Z</time>
      </trkpt>
      <trkpt lat="49.25104" lon="6.1361">
        <ele>161.64</ele>
        <time>2021-07-23T12:42:59Z</time>
      </trkpt>
      <trkpt lat="49.25027" lon="6.13713">
        <ele>164.04</ele>
        <time>2021-07-23T12:43:07Z</time>
      </trkpt>
      <trkpt lat="49.24986" lon="6.13863">
        <ele>169.81</ele>
        <time>2021-07-23T12:43:15Z</time>
      </trkpt>
      <trkpt lat="49.2498" lon="6.14188">
        <ele>186.15</ele>
        <time>2021-07-23T12:43:30Z</time>
      </trkpt>
      <trkpt lat="49.24991" lon="6.14301">
        <ele>193.36</ele>
        <time>2021-07-23T12:43:36Z</time>
      </trkpt>
      <trkpt lat="49.24988" lon="6.1431">
        <ele>193.84</ele>
        <time>2021-07-23T12:43:37Z</time>
      </trkpt>
      <trkpt lat="49.24983" lon="6.14331">
        <ele>193.36</ele>
        <time>2021-07-23T12:43:38Z</time>
      </trkpt>
      <trkpt lat="49.24983" lon="6.14331">
        <ele>193.36</ele>
        <time>2021-07-23T12:43:39Z</time>
      </trkpt>
      <trkpt lat="49.2498" lon="6.1434">
        <ele>193.84</ele>
        <time>2021-07-23T12:43:40Z</time>
      </trkpt>
      <trkpt lat="49.24976" lon="6.14342">
        <ele>194.32</ele>
        <time>2021-07-23T12:43:41Z</time>
      </trkpt>
      <trkpt lat="49.2497" lon="6.14345">
        <ele>194.32</ele>
        <time>2021-07-23T12:43:42Z</time>
      </trkpt>
      <trkpt lat="49.24957" lon="6.14352">
        <ele>194.8</ele>
        <time>2021-07-23T12:43:44Z</time>
      </trkpt>
      <trkpt lat="49.24952" lon="6.14357">
        <ele>194.8</ele>
        <time>2021-07-23T12:43:45Z</time>
      </trkpt>
      <trkpt lat="49.24946" lon="6.14367">
        <ele>194.32</ele>
        <time>2021-07-23T12:43:46Z</time>
      </trkpt>
      <trkpt lat="49.2494" lon="6.14389">
        <ele>194.32</ele>
        <time>2021-07-23T12:43:47Z</time>
      </trkpt>
      <trkpt lat="49.2494" lon="6.14389">
        <ele>193.84</ele>
        <time>2021-07-23T12:43:48Z</time>
      </trkpt>
      <trkpt lat="49.24926" lon="6.14453">
        <ele>192.88</ele>
        <time>2021-07-23T12:43:53Z</time>
      </trkpt>
      <trkpt lat="49.24913" lon="6.14475">
        <ele>193.36</ele>
        <time>2021-07-23T12:43:54Z</time>
      </trkpt>
      <trkpt lat="49.24913" lon="6.14475">
        <ele>191.92</ele>
        <time>2021-07-23T12:43:55Z</time>
      </trkpt>
      <trkpt lat="49.24905" lon="6.14488">
        <ele>190.48</ele>
        <time>2021-07-23T12:43:56Z</time>
      </trkpt>
      <trkpt lat="49.24897" lon="6.145">
        <ele>189.04</ele>
        <time>2021-07-23T12:43:57Z</time>
      </trkpt>
      <trkpt lat="49.24886" lon="6.14508">
        <ele>188.08</ele>
        <time>2021-07-23T12:43:58Z</time>
      </trkpt>
      <trkpt lat="49.24875" lon="6.14516">
        <ele>187.59</ele>
        <time>2021-07-23T12:43:59Z</time>
      </trkpt>
      <trkpt lat="49.24763" lon="6.14559">
        <ele>179.9</ele>
        <time>2021-07-23T12:44:07Z</time>
      </trkpt>
      <trkpt lat="49.24587" lon="6.14552">
        <ele>188.56</ele>
        <time>2021-07-23T12:44:18Z</time>
      </trkpt>
      <trkpt lat="49.24488" lon="6.14492">
        <ele>189.04</ele>
        <time>2021-07-23T12:44:26Z</time>
      </trkpt>
      <trkpt lat="49.24388" lon="6.14437">
        <ele>192.88</ele>
        <time>2021-07-23T12:44:34Z</time>
      </trkpt>
      <trkpt lat="49.24373" lon="6.14434">
        <ele>191.92</ele>
        <time>2021-07-23T12:44:36Z</time>
      </trkpt>
      <trkpt lat="49.24367" lon="6.14434">
        <ele>191.44</ele>
        <time>2021-07-23T12:44:37Z</time>
      </trkpt>
      <trkpt lat="49.24359" lon="6.14423">
        <ele>190.48</ele>
        <time>2021-07-23T12:44:38Z</time>
      </trkpt>
      <trkpt lat="49.24347" lon="6.14399">
        <ele>190.48</ele>
        <time>2021-07-23T12:44:41Z</time>
      </trkpt>
      <trkpt lat="49.2434" lon="6.14393">
        <ele>190.48</ele>
        <time>2021-07-23T12:44:42Z</time>
      </trkpt>
      <trkpt lat="49.24331" lon="6.14393">
        <ele>190.48</ele>
        <time>2021-07-23T12:44:43Z</time>
      </trkpt>
      <trkpt lat="49.24322" lon="6.14394">
        <ele>189.04</ele>
        <time>2021-07-23T12:44:44Z</time>
      </trkpt>
      <trkpt lat="49.24315" lon="6.14395">
        <ele>187.59</ele>
        <time>2021-07-23T12:44:45Z</time>
      </trkpt>
      <trkpt lat="49.24308" lon="6.1441">
        <ele>187.11</ele>
        <time>2021-07-23T12:44:46Z</time>
      </trkpt>
      <trkpt lat="49.24297" lon="6.14419">
        <ele>187.11</ele>
        <time>2021-07-23T12:44:47Z</time>
      </trkpt>
      <trkpt lat="49.24277" lon="6.14422">
        <ele>186.63</ele>
        <time>2021-07-23T12:44:48Z</time>
      </trkpt>
      <trkpt lat="49.24277" lon="6.14422">
        <ele>186.15</ele>
        <time>2021-07-23T12:44:49Z</time>
      </trkpt>
      <trkpt lat="49.24103" lon="6.14445">
        <ele>183.27</ele>
        <time>2021-07-23T12:45:04Z</time>
      </trkpt>
      <trkpt lat="49.23837" lon="6.1448">
        <ele>177.5</ele>
        <time>2021-07-23T12:45:22Z</time>
      </trkpt>
      <trkpt lat="49.23619" lon="6.14506">
        <ele>173.66</ele>
        <time>2021-07-23T12:45:35Z</time>
      </trkpt>
      <trkpt lat="49.23367" lon="6.14535">
        <ele>172.69</ele>
        <time>2021-07-23T12:45:49Z</time>
      </trkpt>
      <trkpt lat="49.2331" lon="6.14537">
        <ele>174.14</ele>
        <time>2021-07-23T12:45:55Z</time>
      </trkpt>
      <trkpt lat="49.23304" lon="6.14535">
        <ele>174.14</ele>
        <time>2021-07-23T12:45:56Z</time>
      </trkpt>
      <trkpt lat="49.23299" lon="6.14529">
        <ele>174.14</ele>
        <time>2021-07-23T12:45:57Z</time>
      </trkpt>
      <trkpt lat="49.23296" lon="6.14522">
        <ele>174.14</ele>
        <time>2021-07-23T12:45:58Z</time>
      </trkpt>
      <trkpt lat="49.23292" lon="6.14514">
        <ele>174.14</ele>
        <time>2021-07-23T12:45:59Z</time>
      </trkpt>
      <trkpt lat="49.23283" lon="6.14507">
        <ele>174.14</ele>
        <time>2021-07-23T12:46:00Z</time>
      </trkpt>
      <trkpt lat="49.23276" lon="6.14506">
        <ele>174.14</ele>
        <time>2021-07-23T12:46:01Z</time>
      </trkpt>
      <trkpt lat="49.23269" lon="6.14504">
        <ele>174.14</ele>
        <time>2021-07-23T12:46:02Z</time>
      </trkpt>
      <trkpt lat="49.23262" lon="6.14506">
        <ele>173.66</ele>
        <time>2021-07-23T12:46:03Z</time>
      </trkpt>
      <trkpt lat="49.23255" lon="6.1451">
        <ele>173.17</ele>
        <time>2021-07-23T12:46:04Z</time>
      </trkpt>
      <trkpt lat="49.23246" lon="6.14525">
        <ele>173.17</ele>
        <time>2021-07-23T12:46:05Z</time>
      </trkpt>
      <trkpt lat="49.23243" lon="6.14535">
        <ele>173.17</ele>
        <time>2021-07-23T12:46:06Z</time>
      </trkpt>
      <trkpt lat="49.23243" lon="6.14535">
        <ele>172.69</ele>
        <time>2021-07-23T12:46:07Z</time>
      </trkpt>
      <trkpt lat="49.23241" lon="6.14545">
        <ele>172.21</ele>
        <time>2021-07-23T12:46:08Z</time>
      </trkpt>
      <trkpt lat="49.23229" lon="6.14549">
        <ele>172.21</ele>
        <time>2021-07-23T12:46:09Z</time>
      </trkpt>
      <trkpt lat="49.23222" lon="6.1455">
        <ele>172.21</ele>
        <time>2021-07-23T12:46:10Z</time>
      </trkpt>
      <trkpt lat="49.23214" lon="6.14551">
        <ele>172.21</ele>
        <time>2021-07-23T12:46:11Z</time>
      </trkpt>
      <trkpt lat="49.23206" lon="6.14552">
        <ele>173.17</ele>
        <time>2021-07-23T12:46:12Z</time>
      </trkpt>
      <trkpt lat="49.23093" lon="6.14568">
        <ele>171.73</ele>
        <time>2021-07-23T12:46:21Z</time>
      </trkpt>
      <trkpt lat="49.22917" lon="6.14588">
        <ele>172.69</ele>
        <time>2021-07-23T12:46:31Z</time>
      </trkpt>
      <trkpt lat="49.22621" lon="6.14619">
        <ele>173.17</ele>
        <time>2021-07-23T12:46:46Z</time>
      </trkpt>
      <trkpt lat="49.22276" lon="6.14674">
        <ele>172.21</ele>
        <time>2021-07-23T12:47:02Z</time>
      </trkpt>
      <trkpt lat="49.22108" lon="6.14731">
        <ele>173.66</ele>
        <time>2021-07-23T12:47:11Z</time>
      </trkpt>
      <trkpt lat="49.22071" lon="6.14737">
        <ele>175.1</ele>
        <time>2021-07-23T12:47:15Z</time>
      </trkpt>
      <trkpt lat="49.22064" lon="6.14738">
        <ele>176.06</ele>
        <time>2021-07-23T12:47:16Z</time>
      </trkpt>
      <trkpt lat="49.22057" lon="6.14739">
        <ele>176.54</ele>
        <time>2021-07-23T12:47:17Z</time>
      </trkpt>
      <trkpt lat="49.22037" lon="6.14716">
        <ele>177.5</ele>
        <time>2021-07-23T12:47:20Z</time>
      </trkpt>
      <trkpt lat="49.22022" lon="6.14714">
        <ele>177.98</ele>
        <time>2021-07-23T12:47:21Z</time>
      </trkpt>
      <trkpt lat="49.22022" lon="6.14714">
        <ele>177.98</ele>
        <time>2021-07-23T12:47:22Z</time>
      </trkpt>
      <trkpt lat="49.22014" lon="6.14716">
        <ele>177.98</ele>
        <time>2021-07-23T12:47:23Z</time>
      </trkpt>
      <trkpt lat="49.22006" lon="6.14717">
        <ele>177.5</ele>
        <time>2021-07-23T12:47:24Z</time>
      </trkpt>
      <trkpt lat="49.21999" lon="6.14717">
        <ele>177.02</ele>
        <time>2021-07-23T12:47:25Z</time>
      </trkpt>
      <trkpt lat="49.21986" lon="6.14715">
        <ele>176.54</ele>
        <time>2021-07-23T12:47:26Z</time>
      </trkpt>
      <trkpt lat="49.21986" lon="6.14715">
        <ele>176.54</ele>
        <time>2021-07-23T12:47:27Z</time>
      </trkpt>
      <trkpt lat="49.21917" lon="6.14716">
        <ele>177.02</ele>
        <time>2021-07-23T12:47:37Z</time>
      </trkpt>
      <trkpt lat="49.21821" lon="6.14729">
        <ele>175.58</ele>
        <time>2021-07-23T12:47:46Z</time>
      </trkpt>
      <trkpt lat="49.21808" lon="6.14729">
        <ele>175.58</ele>
        <time>2021-07-23T12:47:48Z</time>
      </trkpt>
      <trkpt lat="49.21803" lon="6.1473">
        <ele>176.06</ele>
        <time>2021-07-23T12:47:49Z</time>
      </trkpt>
      <trkpt lat="49.21795" lon="6.14724">
        <ele>176.06</ele>
        <time>2021-07-23T12:47:50Z</time>
      </trkpt>
      <trkpt lat="49.21794" lon="6.14719">
        <ele>175.58</ele>
        <time>2021-07-23T12:47:51Z</time>
      </trkpt>
      <trkpt lat="49.21794" lon="6.14716">
        <ele>175.58</ele>
        <time>2021-07-23T12:47:52Z</time>
      </trkpt>
      <trkpt lat="49.21794" lon="6.14716">
        <ele>176.06</ele>
        <time>2021-07-23T12:48:04Z</time>
      </trkpt>
      <trkpt lat="49.21794" lon="6.14716">
        <ele>176.06</ele>
        <time>2021-07-23T12:48:05Z</time>
      </trkpt>
      <trkpt lat="49.21794" lon="6.14696">
        <ele>176.06</ele>
        <time>2021-07-23T12:48:06Z</time>
      </trkpt>
      <trkpt lat="49.21794" lon="6.14696">
        <ele>176.06</ele>
        <time>2021-07-23T12:48:07Z</time>
      </trkpt>
      <trkpt lat="49.21795" lon="6.1473">
        <ele>176.06</ele>
        <time>2021-07-23T12:48:08Z</time>
      </trkpt>
      <trkpt lat="49.21794" lon="6.14717">
        <ele>175.58</ele>
        <time>2021-07-23T12:48:09Z</time>
      </trkpt>
      <trkpt lat="49.21795" lon="6.14721">
        <ele>175.58</ele>
        <time>2021-07-23T12:48:10Z</time>
      </trkpt>
      <trkpt lat="49.21795" lon="6.14723">
        <ele>175.58</ele>
        <time>2021-07-23T12:48:11Z</time>
      </trkpt>
      <trkpt lat="49.21797" lon="6.1473">
        <ele>175.58</ele>
        <time>2021-07-23T12:48:12Z</time>
      </trkpt>
      <trkpt lat="49.21798" lon="6.1473">
        <ele>175.58</ele>
        <time>2021-07-23T12:48:13Z</time>
      </trkpt>
      <trkpt lat="49.218" lon="6.1473">
        <ele>175.1</ele>
        <time>2021-07-23T12:48:14Z</time>
      </trkpt>
      <trkpt lat="49.21807" lon="6.1473">
        <ele>175.58</ele>
        <time>2021-07-23T12:48:31Z</time>
      </trkpt>
      <trkpt lat="49.21811" lon="6.14729">
        <ele>175.58</ele>
        <time>2021-07-23T12:48:32Z</time>
      </trkpt>
      <trkpt lat="49.21817" lon="6.14729">
        <ele>175.58</ele>
        <time>2021-07-23T12:48:33Z</time>
      </trkpt>
      <trkpt lat="49.21823" lon="6.14729">
        <ele>175.58</ele>
        <time>2021-07-23T12:48:34Z</time>
      </trkpt>
      <trkpt lat="49.21823" lon="6.14729">
        <ele>176.06</ele>
        <time>2021-07-23T12:48:35Z</time>
      </trkpt>
      <trkpt lat="49.21918" lon="6.14715">
        <ele>176.54</ele>
        <time>2021-07-23T12:48:44Z</time>
      </trkpt>
      <trkpt lat="49.21958" lon="6.14715">
        <ele>176.54</ele>
        <time>2021-07-23T12:48:48Z</time>
      </trkpt>
      <trkpt lat="49.21963" lon="6.14715">
        <ele>176.54</ele>
        <time>2021-07-23T12:48:49Z</time>
      </trkpt>
      <trkpt lat="49.21968" lon="6.14725">
        <ele>176.06</ele>
        <time>2021-07-23T12:48:50Z</time>
      </trkpt>
      <trkpt lat="49.21972" lon="6.14732">
        <ele>175.58</ele>
        <time>2021-07-23T12:48:51Z</time>
      </trkpt>
      <trkpt lat="49.21977" lon="6.14739">
        <ele>175.1</ele>
        <time>2021-07-23T12:48:52Z</time>
      </trkpt>
      <trkpt lat="49.21981" lon="6.14748">
        <ele>175.1</ele>
        <time>2021-07-23T12:48:53Z</time>
      </trkpt>
      <trkpt lat="49.21984" lon="6.14757">
        <ele>175.1</ele>
        <time>2021-07-23T12:48:54Z</time>
      </trkpt>
      <trkpt lat="49.21982" lon="6.14769">
        <ele>174.62</ele>
        <time>2021-07-23T12:48:55Z</time>
      </trkpt>
      <trkpt lat="49.21976" lon="6.14777">
        <ele>174.62</ele>
        <time>2021-07-23T12:48:56Z</time>
      </trkpt>
      <trkpt lat="49.21968" lon="6.14785">
        <ele>174.14</ele>
        <time>2021-07-23T12:48:57Z</time>
      </trkpt>
      <trkpt lat="49.21959" lon="6.14791">
        <ele>173.66</ele>
        <time>2021-07-23T12:48:58Z</time>
      </trkpt>
      <trkpt lat="49.21949" lon="6.14797">
        <ele>173.66</ele>
        <time>2021-07-23T12:48:59Z</time>
      </trkpt>
      <trkpt lat="49.21938" lon="6.14802">
        <ele>172.69</ele>
        <time>2021-07-23T12:49:00Z</time>
      </trkpt>
      <trkpt lat="49.21773" lon="6.14838">
        <ele>172.69</ele>
        <time>2021-07-23T12:49:12Z</time>
      </trkpt>
      <trkpt lat="49.21605" lon="6.14911">
        <ele>172.69</ele>
        <time>2021-07-23T12:49:23Z</time>
      </trkpt>
      <trkpt lat="49.2146" lon="6.1503">
        <ele>170.29</ele>
        <time>2021-07-23T12:49:32Z</time>
      </trkpt>
      <trkpt lat="49.21313" lon="6.15098">
        <ele>169.33</ele>
        <time>2021-07-23T12:49:40Z</time>
      </trkpt>
      <trkpt lat="49.21151" lon="6.15093">
        <ele>172.21</ele>
        <time>2021-07-23T12:49:48Z</time>
      </trkpt>
      <trkpt lat="49.20958" lon="6.15034">
        <ele>179.42</ele>
        <time>2021-07-23T12:49:58Z</time>
      </trkpt>
      <trkpt lat="49.20734" lon="6.14897">
        <ele>177.98</ele>
        <time>2021-07-23T12:50:10Z</time>
      </trkpt>
      <trkpt lat="49.20524" lon="6.14762">
        <ele>180.38</ele>
        <time>2021-07-23T12:50:21Z</time>
      </trkpt>
      <trkpt lat="49.2023" lon="6.14628">
        <ele>183.75</ele>
        <time>2021-07-23T12:50:36Z</time>
      </trkpt>
      <trkpt lat="49.20087" lon="6.14556">
        <ele>186.15</ele>
        <time>2021-07-23T12:50:46Z</time>
      </trkpt>
      <trkpt lat="49.20036" lon="6.14522">
        <ele>186.63</ele>
        <time>2021-07-23T12:50:52Z</time>
      </trkpt>
      <trkpt lat="49.20032" lon="6.14517">
        <ele>186.15</ele>
        <time>2021-07-23T12:50:53Z</time>
      </trkpt>
      <trkpt lat="49.20029" lon="6.1451">
        <ele>185.19</ele>
        <time>2021-07-23T12:50:54Z</time>
      </trkpt>
      <trkpt lat="49.20026" lon="6.14502">
        <ele>184.71</ele>
        <time>2021-07-23T12:50:55Z</time>
      </trkpt>
      <trkpt lat="49.20023" lon="6.14494">
        <ele>184.71</ele>
        <time>2021-07-23T12:50:56Z</time>
      </trkpt>
      <trkpt lat="49.2002" lon="6.14471">
        <ele>184.71</ele>
        <time>2021-07-23T12:50:57Z</time>
      </trkpt>
      <trkpt lat="49.2002" lon="6.14471">
        <ele>184.71</ele>
        <time>2021-07-23T12:50:58Z</time>
      </trkpt>
      <trkpt lat="49.20015" lon="6.14445">
        <ele>184.71</ele>
        <time>2021-07-23T12:50:59Z</time>
      </trkpt>
      <trkpt lat="49.2001" lon="6.14434">
        <ele>184.71</ele>
        <time>2021-07-23T12:51:00Z</time>
      </trkpt>
      <trkpt lat="49.20004" lon="6.14424">
        <ele>184.71</ele>
        <time>2021-07-23T12:51:01Z</time>
      </trkpt>
      <trkpt lat="49.19998" lon="6.14414">
        <ele>184.71</ele>
        <time>2021-07-23T12:51:02Z</time>
      </trkpt>
      <trkpt lat="49.19991" lon="6.14402">
        <ele>184.71</ele>
        <time>2021-07-23T12:51:04Z</time>
      </trkpt>
      <trkpt lat="49.19992" lon="6.14385">
        <ele>184.71</ele>
        <time>2021-07-23T12:51:05Z</time>
      </trkpt>
      <trkpt lat="49.19993" lon="6.14374">
        <ele>184.71</ele>
        <time>2021-07-23T12:51:06Z</time>
      </trkpt>
      <trkpt lat="49.19993" lon="6.14374">
        <ele>184.71</ele>
        <time>2021-07-23T12:51:07Z</time>
      </trkpt>
      <trkpt lat="49.19997" lon="6.14353">
        <ele>184.71</ele>
        <time>2021-07-23T12:51:08Z</time>
      </trkpt>
      <trkpt lat="49.19997" lon="6.14353">
        <ele>184.71</ele>
        <time>2021-07-23T12:51:09Z</time>
      </trkpt>
      <trkpt lat="49.20002" lon="6.14342">
        <ele>185.19</ele>
        <time>2021-07-23T12:51:10Z</time>
      </trkpt>
      <trkpt lat="49.20072" lon="6.14218">
        <ele>179.42</ele>
        <time>2021-07-23T12:51:18Z</time>
      </trkpt>
      <trkpt lat="49.20175" lon="6.14074">
        <ele>178.94</ele>
        <time>2021-07-23T12:51:26Z</time>
      </trkpt>
      <trkpt lat="49.20394" lon="6.13839">
        <ele>182.31</ele>
        <time>2021-07-23T12:51:40Z</time>
      </trkpt>
      <trkpt lat="49.20547" lon="6.13615">
        <ele>184.71</ele>
        <time>2021-07-23T12:51:50Z</time>
      </trkpt>
      <trkpt lat="49.2066" lon="6.13331">
        <ele>190.48</ele>
        <time>2021-07-23T12:51:59Z</time>
      </trkpt>
      <trkpt lat="49.20709" lon="6.13074">
        <ele>190.96</ele>
        <time>2021-07-23T12:52:08Z</time>
      </trkpt>
      <trkpt lat="49.20724" lon="6.12781">
        <ele>193.36</ele>
        <time>2021-07-23T12:52:16Z</time>
      </trkpt>
      <trkpt lat="49.20688" lon="6.12473">
        <ele>197.21</ele>
        <time>2021-07-23T12:52:24Z</time>
      </trkpt>
      <trkpt lat="49.20587" lon="6.12063">
        <ele>204.9</ele>
        <time>2021-07-23T12:52:35Z</time>
      </trkpt>
      <trkpt lat="49.20482" lon="6.1156">
        <ele>215.47</ele>
        <time>2021-07-23T12:52:49Z</time>
      </trkpt>
      <trkpt lat="49.2039" lon="6.11219">
        <ele>220.28</ele>
        <time>2021-07-23T12:52:59Z</time>
      </trkpt>
      <trkpt lat="49.20258" lon="6.10911">
        <ele>226.53</ele>
        <time>2021-07-23T12:53:09Z</time>
      </trkpt>
      <trkpt lat="49.20171" lon="6.10623">
        <ele>227.97</ele>
        <time>2021-07-23T12:53:18Z</time>
      </trkpt>
      <trkpt lat="49.20076" lon="6.10414">
        <ele>234.7</ele>
        <time>2021-07-23T12:53:25Z</time>
      </trkpt>
      <trkpt lat="49.19904" lon="6.10147">
        <ele>243.83</ele>
        <time>2021-07-23T12:53:35Z</time>
      </trkpt>
      <trkpt lat="49.19802" lon="6.09883">
        <ele>252</ele>
        <time>2021-07-23T12:53:43Z</time>
      </trkpt>
      <trkpt lat="49.19689" lon="6.09623">
        <ele>258.25</ele>
        <time>2021-07-23T12:53:51Z</time>
      </trkpt>
      <trkpt lat="49.19544" lon="6.09446">
        <ele>262.1</ele>
        <time>2021-07-23T12:53:58Z</time>
      </trkpt>
      <trkpt lat="49.19349" lon="6.09229">
        <ele>264.5</ele>
        <time>2021-07-23T12:54:07Z</time>
      </trkpt>
      <trkpt lat="49.19226" lon="6.08981">
        <ele>271.23</ele>
        <time>2021-07-23T12:54:15Z</time>
      </trkpt>
      <trkpt lat="49.19071" lon="6.08652">
        <ele>279.88</ele>
        <time>2021-07-23T12:54:26Z</time>
      </trkpt>
      <trkpt lat="49.18935" lon="6.0849">
        <ele>285.65</ele>
        <time>2021-07-23T12:54:33Z</time>
      </trkpt>
      <trkpt lat="49.18734" lon="6.08335">
        <ele>289.49</ele>
        <time>2021-07-23T12:54:42Z</time>
      </trkpt>
      <trkpt lat="49.1859" lon="6.08173">
        <ele>292.38</ele>
        <time>2021-07-23T12:54:49Z</time>
      </trkpt>
      <trkpt lat="49.18491" lon="6.07962">
        <ele>295.26</ele>
        <time>2021-07-23T12:54:56Z</time>
      </trkpt>
      <trkpt lat="49.18434" lon="6.07715">
        <ele>300.55</ele>
        <time>2021-07-23T12:55:03Z</time>
      </trkpt>
      <trkpt lat="49.18415" lon="6.07365">
        <ele>307.76</ele>
        <time>2021-07-23T12:55:12Z</time>
      </trkpt>
      <trkpt lat="49.18384" lon="6.07052">
        <ele>312.57</ele>
        <time>2021-07-23T12:55:20Z</time>
      </trkpt>
      <trkpt lat="49.18282" lon="6.06726">
        <ele>316.41</ele>
        <time>2021-07-23T12:55:28Z</time>
      </trkpt>
      <trkpt lat="49.18101" lon="6.06178">
        <ele>327.47</ele>
        <time>2021-07-23T12:55:44Z</time>
      </trkpt>
      <trkpt lat="49.18053" lon="6.05861">
        <ele>328.43</ele>
        <time>2021-07-23T12:55:52Z</time>
      </trkpt>
      <trkpt lat="49.17988" lon="6.05222">
        <ele>326.02</ele>
        <time>2021-07-23T12:56:08Z</time>
      </trkpt>
      <trkpt lat="49.17918" lon="6.04498">
        <ele>320.74</ele>
        <time>2021-07-23T12:56:26Z</time>
      </trkpt>
      <trkpt lat="49.17935" lon="6.04174">
        <ele>317.85</ele>
        <time>2021-07-23T12:56:34Z</time>
      </trkpt>
      <trkpt lat="49.18016" lon="6.0374">
        <ele>316.41</ele>
        <time>2021-07-23T12:56:45Z</time>
      </trkpt>
      <trkpt lat="49.18122" lon="6.0318">
        <ele>323.14</ele>
        <time>2021-07-23T12:57:00Z</time>
      </trkpt>
      <trkpt lat="49.1816" lon="6.02752">
        <ele>323.14</ele>
        <time>2021-07-23T12:57:11Z</time>
      </trkpt>
      <trkpt lat="49.18178" lon="6.02184">
        <ele>314.01</ele>
        <time>2021-07-23T12:57:25Z</time>
      </trkpt>
      <trkpt lat="49.18217" lon="6.01559">
        <ele>303.91</ele>
        <time>2021-07-23T12:57:41Z</time>
      </trkpt>
      <trkpt lat="49.18304" lon="6.01032">
        <ele>293.34</ele>
        <time>2021-07-23T12:57:55Z</time>
      </trkpt>
      <trkpt lat="49.18433" lon="6.00568">
        <ele>284.69</ele>
        <time>2021-07-23T12:58:08Z</time>
      </trkpt>
      <trkpt lat="49.18616" lon="6.00104">
        <ele>278.44</ele>
        <time>2021-07-23T12:58:22Z</time>
      </trkpt>
      <trkpt lat="49.18832" lon="5.99705">
        <ele>268.83</ele>
        <time>2021-07-23T12:58:34Z</time>
      </trkpt>
      <trkpt lat="49.1905" lon="5.99405">
        <ele>255.37</ele>
        <time>2021-07-23T12:58:46Z</time>
      </trkpt>
      <trkpt lat="49.19284" lon="5.99144">
        <ele>248.64</ele>
        <time>2021-07-23T12:58:57Z</time>
      </trkpt>
      <trkpt lat="49.19522" lon="5.98873">
        <ele>241.43</ele>
        <time>2021-07-23T12:59:09Z</time>
      </trkpt>
      <trkpt lat="49.19669" lon="5.98617">
        <ele>236.62</ele>
        <time>2021-07-23T12:59:18Z</time>
      </trkpt>
      <trkpt lat="49.19779" lon="5.98309">
        <ele>230.85</ele>
        <time>2021-07-23T12:59:27Z</time>
      </trkpt>
      <trkpt lat="49.19843" lon="5.97996">
        <ele>227.97</ele>
        <time>2021-07-23T12:59:35Z</time>
      </trkpt>
      <trkpt lat="49.19922" lon="5.97476">
        <ele>228.45</ele>
        <time>2021-07-23T12:59:48Z</time>
      </trkpt>
      <trkpt lat="49.20032" lon="5.97128">
        <ele>231.33</ele>
        <time>2021-07-23T12:59:58Z</time>
      </trkpt>
      <trkpt lat="49.20251" lon="5.96492">
        <ele>227.97</ele>
        <time>2021-07-23T13:00:17Z</time>
      </trkpt>
      <trkpt lat="49.20348" lon="5.96082">
        <ele>224.12</ele>
        <time>2021-07-23T13:00:28Z</time>
      </trkpt>
      <trkpt lat="49.20395" lon="5.95679">
        <ele>221.24</ele>
        <time>2021-07-23T13:00:38Z</time>
      </trkpt>
      <trkpt lat="49.20414" lon="5.94969">
        <ele>209.7</ele>
        <time>2021-07-23T13:00:55Z</time>
      </trkpt>
      <trkpt lat="49.20371" lon="5.94648">
        <ele>203.46</ele>
        <time>2021-07-23T13:01:03Z</time>
      </trkpt>
      <trkpt lat="49.20289" lon="5.94378">
        <ele>195.28</ele>
        <time>2021-07-23T13:01:10Z</time>
      </trkpt>
      <trkpt lat="49.20077" lon="5.93933">
        <ele>195.77</ele>
        <time>2021-07-23T13:01:23Z</time>
      </trkpt>
      <trkpt lat="49.1999" lon="5.93683">
        <ele>199.61</ele>
        <time>2021-07-23T13:01:30Z</time>
      </trkpt>
      <trkpt lat="49.19952" lon="5.93365">
        <ele>203.46</ele>
        <time>2021-07-23T13:01:38Z</time>
      </trkpt>
      <trkpt lat="49.19924" lon="5.92958">
        <ele>208.26</ele>
        <time>2021-07-23T13:01:49Z</time>
      </trkpt>
      <trkpt lat="49.19914" lon="5.92703">
        <ele>208.74</ele>
        <time>2021-07-23T13:01:57Z</time>
      </trkpt>
      <trkpt lat="49.19909" lon="5.92494">
        <ele>210.19</ele>
        <time>2021-07-23T13:02:08Z</time>
      </trkpt>
      <trkpt lat="49.19908" lon="5.92463">
        <ele>210.19</ele>
        <time>2021-07-23T13:02:14Z</time>
      </trkpt>
      <trkpt lat="49.19907" lon="5.92434">
        <ele>209.7</ele>
        <time>2021-07-23T13:02:23Z</time>
      </trkpt>
      <trkpt lat="49.19904" lon="5.92406">
        <ele>209.7</ele>
        <time>2021-07-23T13:02:35Z</time>
      </trkpt>
      <trkpt lat="49.199" lon="5.92348">
        <ele>209.22</ele>
        <time>2021-07-23T13:02:42Z</time>
      </trkpt>
      <trkpt lat="49.19883" lon="5.9219">
        <ele>208.74</ele>
        <time>2021-07-23T13:02:51Z</time>
      </trkpt>
      <trkpt lat="49.19863" lon="5.91975">
        <ele>205.86</ele>
        <time>2021-07-23T13:03:00Z</time>
      </trkpt>
      <trkpt lat="49.19838" lon="5.91573">
        <ele>198.65</ele>
        <time>2021-07-23T13:03:12Z</time>
      </trkpt>
      <trkpt lat="49.19846" lon="5.91194">
        <ele>202.49</ele>
        <time>2021-07-23T13:03:23Z</time>
      </trkpt>
      <trkpt lat="49.19882" lon="5.90735">
        <ele>209.7</ele>
        <time>2021-07-23T13:03:38Z</time>
      </trkpt>
      <trkpt lat="49.19885" lon="5.9028">
        <ele>208.26</ele>
        <time>2021-07-23T13:03:51Z</time>
      </trkpt>
      <trkpt lat="49.19841" lon="5.89746">
        <ele>207.3</ele>
        <time>2021-07-23T13:04:05Z</time>
      </trkpt>
      <trkpt lat="49.19753" lon="5.88928">
        <ele>211.63</ele>
        <time>2021-07-23T13:04:26Z</time>
      </trkpt>
      <trkpt lat="49.1972" lon="5.88388">
        <ele>214.99</ele>
        <time>2021-07-23T13:04:40Z</time>
      </trkpt>
      <trkpt lat="49.19689" lon="5.87581">
        <ele>216.43</ele>
        <time>2021-07-23T13:04:59Z</time>
      </trkpt>
      <trkpt lat="49.19613" lon="5.86936">
        <ele>214.51</ele>
        <time>2021-07-23T13:05:15Z</time>
      </trkpt>
      <trkpt lat="49.19513" lon="5.86425">
        <ele>221.72</ele>
        <time>2021-07-23T13:05:30Z</time>
      </trkpt>
      <trkpt lat="49.19347" lon="5.85772">
        <ele>228.93</ele>
        <time>2021-07-23T13:05:49Z</time>
      </trkpt>
      <trkpt lat="49.19177" lon="5.8511">
        <ele>226.05</ele>
        <time>2021-07-23T13:06:07Z</time>
      </trkpt>
      <trkpt lat="49.19059" lon="5.84584">
        <ele>216.43</ele>
        <time>2021-07-23T13:06:19Z</time>
      </trkpt>
      <trkpt lat="49.18994" lon="5.84122">
        <ele>206.34</ele>
        <time>2021-07-23T13:06:31Z</time>
      </trkpt>
      <trkpt lat="49.18954" lon="5.83523">
        <ele>201.53</ele>
        <time>2021-07-23T13:06:45Z</time>
      </trkpt>
      <trkpt lat="49.18909" lon="5.83011">
        <ele>207.78</ele>
        <time>2021-07-23T13:06:57Z</time>
      </trkpt>
      <trkpt lat="49.1881" lon="5.82454">
        <ele>212.59</ele>
        <time>2021-07-23T13:07:10Z</time>
      </trkpt>
      <trkpt lat="49.18703" lon="5.81821">
        <ele>215.95</ele>
        <time>2021-07-23T13:07:25Z</time>
      </trkpt>
      <trkpt lat="49.18629" lon="5.81119">
        <ele>211.63</ele>
        <time>2021-07-23T13:07:41Z</time>
      </trkpt>
      <trkpt lat="49.18541" lon="5.80522">
        <ele>206.82</ele>
        <time>2021-07-23T13:07:55Z</time>
      </trkpt>
      <trkpt lat="49.18403" lon="5.79921">
        <ele>205.38</ele>
        <time>2021-07-23T13:08:09Z</time>
      </trkpt>
      <trkpt lat="49.1819" lon="5.79168">
        <ele>210.19</ele>
        <time>2021-07-23T13:08:30Z</time>
      </trkpt>
      <trkpt lat="49.18015" lon="5.78546">
        <ele>208.74</ele>
        <time>2021-07-23T13:08:47Z</time>
      </trkpt>
      <trkpt lat="49.17829" lon="5.77727">
        <ele>211.15</ele>
        <time>2021-07-23T13:09:09Z</time>
      </trkpt>
      <trkpt lat="49.17653" lon="5.77006">
        <ele>214.03</ele>
        <time>2021-07-23T13:09:29Z</time>
      </trkpt>
      <trkpt lat="49.17486" lon="5.76509">
        <ele>210.67</ele>
        <time>2021-07-23T13:09:42Z</time>
      </trkpt>
      <trkpt lat="49.17266" lon="5.75994">
        <ele>205.86</ele>
        <time>2021-07-23T13:09:58Z</time>
      </trkpt>
      <trkpt lat="49.16992" lon="5.75489">
        <ele>207.78</ele>
        <time>2021-07-23T13:10:14Z</time>
      </trkpt>
      <trkpt lat="49.16707" lon="5.75078">
        <ele>209.22</ele>
        <time>2021-07-23T13:10:29Z</time>
      </trkpt>
      <trkpt lat="49.16217" lon="5.74421">
        <ele>201.05</ele>
        <time>2021-07-23T13:10:53Z</time>
      </trkpt>
      <trkpt lat="49.15835" lon="5.73888">
        <ele>197.69</ele>
        <time>2021-07-23T13:11:13Z</time>
      </trkpt>
      <trkpt lat="49.15569" lon="5.73449">
        <ele>199.61</ele>
        <time>2021-07-23T13:11:27Z</time>
      </trkpt>
      <trkpt lat="49.15286" lon="5.72904">
        <ele>201.53</ele>
        <time>2021-07-23T13:11:46Z</time>
      </trkpt>
      <trkpt lat="49.15048" lon="5.72358">
        <ele>198.65</ele>
        <time>2021-07-23T13:12:02Z</time>
      </trkpt>
      <trkpt lat="49.14817" lon="5.71767">
        <ele>204.9</ele>
        <time>2021-07-23T13:12:19Z</time>
      </trkpt>
      <trkpt lat="49.14547" lon="5.71106">
        <ele>207.3</ele>
        <time>2021-07-23T13:12:38Z</time>
      </trkpt>
      <trkpt lat="49.14276" lon="5.70508">
        <ele>211.63</ele>
        <time>2021-07-23T13:12:56Z</time>
      </trkpt>
      <trkpt lat="49.14008" lon="5.69859">
        <ele>213.55</ele>
        <time>2021-07-23T13:13:15Z</time>
      </trkpt>
      <trkpt lat="49.13782" lon="5.69175">
        <ele>216.43</ele>
        <time>2021-07-23T13:13:34Z</time>
      </trkpt>
      <trkpt lat="49.13569" lon="5.68418">
        <ele>209.7</ele>
        <time>2021-07-23T13:13:54Z</time>
      </trkpt>
      <trkpt lat="49.13365" lon="5.67792">
        <ele>210.19</ele>
        <time>2021-07-23T13:14:11Z</time>
      </trkpt>
      <trkpt lat="49.13111" lon="5.67044">
        <ele>210.67</ele>
        <time>2021-07-23T13:14:32Z</time>
      </trkpt>
      <trkpt lat="49.12974" lon="5.66525">
        <ele>214.03</ele>
        <time>2021-07-23T13:14:46Z</time>
      </trkpt>
      <trkpt lat="49.12883" lon="5.66017">
        <ele>224.12</ele>
        <time>2021-07-23T13:15:00Z</time>
      </trkpt>
      <trkpt lat="49.12822" lon="5.65441">
        <ele>231.81</ele>
        <time>2021-07-23T13:15:16Z</time>
      </trkpt>
      <trkpt lat="49.12797" lon="5.64747">
        <ele>233.26</ele>
        <time>2021-07-23T13:15:34Z</time>
      </trkpt>
      <trkpt lat="49.12757" lon="5.64076">
        <ele>232.78</ele>
        <time>2021-07-23T13:15:51Z</time>
      </trkpt>
      <trkpt lat="49.12695" lon="5.63326">
        <ele>235.66</ele>
        <time>2021-07-23T13:16:10Z</time>
      </trkpt>
      <trkpt lat="49.12688" lon="5.62893">
        <ele>239.02</ele>
        <time>2021-07-23T13:16:22Z</time>
      </trkpt>
      <trkpt lat="49.127" lon="5.62545">
        <ele>241.91</ele>
        <time>2021-07-23T13:16:34Z</time>
      </trkpt>
      <trkpt lat="49.12715" lon="5.62115">
        <ele>238.54</ele>
        <time>2021-07-23T13:16:51Z</time>
      </trkpt>
      <trkpt lat="49.12717" lon="5.62098">
        <ele>239.02</ele>
        <time>2021-07-23T13:16:52Z</time>
      </trkpt>
      <trkpt lat="49.12719" lon="5.6208">
        <ele>238.54</ele>
        <time>2021-07-23T13:16:53Z</time>
      </trkpt>
      <trkpt lat="49.12726" lon="5.62065">
        <ele>238.54</ele>
        <time>2021-07-23T13:16:54Z</time>
      </trkpt>
      <trkpt lat="49.12734" lon="5.6205">
        <ele>237.58</ele>
        <time>2021-07-23T13:16:55Z</time>
      </trkpt>
      <trkpt lat="49.12743" lon="5.62037">
        <ele>237.58</ele>
        <time>2021-07-23T13:16:56Z</time>
      </trkpt>
      <trkpt lat="49.12766" lon="5.62027">
        <ele>237.58</ele>
        <time>2021-07-23T13:16:57Z</time>
      </trkpt>
      <trkpt lat="49.12766" lon="5.62027">
        <ele>237.58</ele>
        <time>2021-07-23T13:16:58Z</time>
      </trkpt>
      <trkpt lat="49.1279" lon="5.62034">
        <ele>235.18</ele>
        <time>2021-07-23T13:16:59Z</time>
      </trkpt>
      <trkpt lat="49.12802" lon="5.62041">
        <ele>234.22</ele>
        <time>2021-07-23T13:17:00Z</time>
      </trkpt>
      <trkpt lat="49.12814" lon="5.62047">
        <ele>233.26</ele>
        <time>2021-07-23T13:17:01Z</time>
      </trkpt>
      <trkpt lat="49.12826" lon="5.62054">
        <ele>233.26</ele>
        <time>2021-07-23T13:17:02Z</time>
      </trkpt>
      <trkpt lat="49.1289" lon="5.62107">
        <ele>233.74</ele>
        <time>2021-07-23T13:17:10Z</time>
      </trkpt>
      <trkpt lat="49.12912" lon="5.62129">
        <ele>232.3</ele>
        <time>2021-07-23T13:17:18Z</time>
      </trkpt>
      <trkpt lat="49.12938" lon="5.62155">
        <ele>232.3</ele>
        <time>2021-07-23T13:17:25Z</time>
      </trkpt>
      <trkpt lat="49.13018" lon="5.62224">
        <ele>230.85</ele>
        <time>2021-07-23T13:17:35Z</time>
      </trkpt>
      <trkpt lat="49.13189" lon="5.62388">
        <ele>219.8</ele>
        <time>2021-07-23T13:17:55Z</time>
      </trkpt>
      <trkpt lat="49.13212" lon="5.62416">
        <ele>218.36</ele>
        <time>2021-07-23T13:17:59Z</time>
      </trkpt>
      <trkpt lat="49.13216" lon="5.62422">
        <ele>218.36</ele>
        <time>2021-07-23T13:18:00Z</time>
      </trkpt>
      <trkpt lat="49.1322" lon="5.62428">
        <ele>217.88</ele>
        <time>2021-07-23T13:18:01Z</time>
      </trkpt>
      <trkpt lat="49.13218" lon="5.62443">
        <ele>217.88</ele>
        <time>2021-07-23T13:18:02Z</time>
      </trkpt>
      <trkpt lat="49.13216" lon="5.6245">
        <ele>217.88</ele>
        <time>2021-07-23T13:18:03Z</time>
      </trkpt>
      <trkpt lat="49.13217" lon="5.62463">
        <ele>217.88</ele>
        <time>2021-07-23T13:18:04Z</time>
      </trkpt>
      <trkpt lat="49.1322" lon="5.6247">
        <ele>217.88</ele>
        <time>2021-07-23T13:18:05Z</time>
      </trkpt>
      <trkpt lat="49.13223" lon="5.62476">
        <ele>217.88</ele>
        <time>2021-07-23T13:18:06Z</time>
      </trkpt>
      <trkpt lat="49.1323" lon="5.62476">
        <ele>217.4</ele>
        <time>2021-07-23T13:18:07Z</time>
      </trkpt>
      <trkpt lat="49.13236" lon="5.62476">
        <ele>216.91</ele>
        <time>2021-07-23T13:18:08Z</time>
      </trkpt>
      <trkpt lat="49.13236" lon="5.62476">
        <ele>216.43</ele>
        <time>2021-07-23T13:18:09Z</time>
      </trkpt>
      <trkpt lat="49.13243" lon="5.62466">
        <ele>215.95</ele>
        <time>2021-07-23T13:18:10Z</time>
      </trkpt>
      <trkpt lat="49.13257" lon="5.62464">
        <ele>215.47</ele>
        <time>2021-07-23T13:18:11Z</time>
      </trkpt>
      <trkpt lat="49.13263" lon="5.62469">
        <ele>214.99</ele>
        <time>2021-07-23T13:18:12Z</time>
      </trkpt>
      <trkpt lat="49.1327" lon="5.62475">
        <ele>214.51</ele>
        <time>2021-07-23T13:18:13Z</time>
      </trkpt>
      <trkpt lat="49.13352" lon="5.62544">
        <ele>209.7</ele>
        <time>2021-07-23T13:18:22Z</time>
      </trkpt>
      <trkpt lat="49.13454" lon="5.62615">
        <ele>209.7</ele>
        <time>2021-07-23T13:18:30Z</time>
      </trkpt>
      <trkpt lat="49.13485" lon="5.62624">
        <ele>208.74</ele>
        <time>2021-07-23T13:18:31Z</time>
      </trkpt>
      <trkpt lat="49.13485" lon="5.62624">
        <ele>208.26</ele>
        <time>2021-07-23T13:18:32Z</time>
      </trkpt>
      <trkpt lat="49.1366" lon="5.62647">
        <ele>208.26</ele>
        <time>2021-07-23T13:18:42Z</time>
      </trkpt>
      <trkpt lat="49.1378" lon="5.62732">
        <ele>208.74</ele>
        <time>2021-07-23T13:18:49Z</time>
      </trkpt>
      <trkpt lat="49.1392" lon="5.62818">
        <ele>206.34</ele>
        <time>2021-07-23T13:18:57Z</time>
      </trkpt>
      <trkpt lat="49.14192" lon="5.62844">
        <ele>206.34</ele>
        <time>2021-07-23T13:19:10Z</time>
      </trkpt>
      <trkpt lat="49.14358" lon="5.62816">
        <ele>207.78</ele>
        <time>2021-07-23T13:19:18Z</time>
      </trkpt>
      <trkpt lat="49.14617" lon="5.62747">
        <ele>220.76</ele>
        <time>2021-07-23T13:19:32Z</time>
      </trkpt>
      <trkpt lat="49.14862" lon="5.62675">
        <ele>222.68</ele>
        <time>2021-07-23T13:19:46Z</time>
      </trkpt>
      <trkpt lat="49.1506" lon="5.62631">
        <ele>213.55</ele>
        <time>2021-07-23T13:19:58Z</time>
      </trkpt>
      <trkpt lat="49.15177" lon="5.62675">
        <ele>213.55</ele>
        <time>2021-07-23T13:20:06Z</time>
      </trkpt>
      <trkpt lat="49.15291" lon="5.62691">
        <ele>208.26</ele>
        <time>2021-07-23T13:20:15Z</time>
      </trkpt>
      <trkpt lat="49.15424" lon="5.62688">
        <ele>208.26</ele>
        <time>2021-07-23T13:20:26Z</time>
      </trkpt>
      <trkpt lat="49.15558" lon="5.62756">
        <ele>205.86</ele>
        <time>2021-07-23T13:20:38Z</time>
      </trkpt>
      <trkpt lat="49.15655" lon="5.62822">
        <ele>204.9</ele>
        <time>2021-07-23T13:20:48Z</time>
      </trkpt>
      <trkpt lat="49.15722" lon="5.62883">
        <ele>203.94</ele>
        <time>2021-07-23T13:20:54Z</time>
      </trkpt>
      <trkpt lat="49.15734" lon="5.62889">
        <ele>204.42</ele>
        <time>2021-07-23T13:20:55Z</time>
      </trkpt>
      <trkpt lat="49.15919" lon="5.62952">
        <ele>206.34</ele>
        <time>2021-07-23T13:21:08Z</time>
      </trkpt>
      <trkpt lat="49.16129" lon="5.63047">
        <ele>210.19</ele>
        <time>2021-07-23T13:21:21Z</time>
      </trkpt>
      <trkpt lat="49.16297" lon="5.63174">
        <ele>212.11</ele>
        <time>2021-07-23T13:21:31Z</time>
      </trkpt>
      <trkpt lat="49.16498" lon="5.63326">
        <ele>215.95</ele>
        <time>2021-07-23T13:21:41Z</time>
      </trkpt>
      <trkpt lat="49.16676" lon="5.63467">
        <ele>218.36</ele>
        <time>2021-07-23T13:21:52Z</time>
      </trkpt>
      <trkpt lat="49.16706" lon="5.63501">
        <ele>217.4</ele>
        <time>2021-07-23T13:21:54Z</time>
      </trkpt>
      <trkpt lat="49.16722" lon="5.6352">
        <ele>216.91</ele>
        <time>2021-07-23T13:21:55Z</time>
      </trkpt>
      <trkpt lat="49.16868" lon="5.63732">
        <ele>213.07</ele>
        <time>2021-07-23T13:22:05Z</time>
      </trkpt>
      <trkpt lat="49.17094" lon="5.64048">
        <ele>209.22</ele>
        <time>2021-07-23T13:22:20Z</time>
      </trkpt>
      <trkpt lat="49.17328" lon="5.64378">
        <ele>211.15</ele>
        <time>2021-07-23T13:22:35Z</time>
      </trkpt>
      <trkpt lat="49.17632" lon="5.64806">
        <ele>208.74</ele>
        <time>2021-07-23T13:22:54Z</time>
      </trkpt>
      <trkpt lat="49.17807" lon="5.65082">
        <ele>212.11</ele>
        <time>2021-07-23T13:23:06Z</time>
      </trkpt>
      <trkpt lat="49.17956" lon="5.65371">
        <ele>213.07</ele>
        <time>2021-07-23T13:23:19Z</time>
      </trkpt>
      <trkpt lat="49.18082" lon="5.65614">
        <ele>211.15</ele>
        <time>2021-07-23T13:23:32Z</time>
      </trkpt>
      <trkpt lat="49.18216" lon="5.6587">
        <ele>202.01</ele>
        <time>2021-07-23T13:23:44Z</time>
      </trkpt>
      <trkpt lat="49.18364" lon="5.66108">
        <ele>200.09</ele>
        <time>2021-07-23T13:23:55Z</time>
      </trkpt>
      <trkpt lat="49.18511" lon="5.66284">
        <ele>200.09</ele>
        <time>2021-07-23T13:24:06Z</time>
      </trkpt>
      <trkpt lat="49.18534" lon="5.66312">
        <ele>200.57</ele>
        <time>2021-07-23T13:24:09Z</time>
      </trkpt>
      <trkpt lat="49.18539" lon="5.66317">
        <ele>200.57</ele>
        <time>2021-07-23T13:24:10Z</time>
      </trkpt>
      <trkpt lat="49.18543" lon="5.66321">
        <ele>201.05</ele>
        <time>2021-07-23T13:24:11Z</time>
      </trkpt>
      <trkpt lat="49.18536" lon="5.6635">
        <ele>201.05</ele>
        <time>2021-07-23T13:24:12Z</time>
      </trkpt>
      <trkpt lat="49.18536" lon="5.6635">
        <ele>201.05</ele>
        <time>2021-07-23T13:24:13Z</time>
      </trkpt>
      <trkpt lat="49.18538" lon="5.66357">
        <ele>200.57</ele>
        <time>2021-07-23T13:24:14Z</time>
      </trkpt>
      <trkpt lat="49.18539" lon="5.66366">
        <ele>200.57</ele>
        <time>2021-07-23T13:24:15Z</time>
      </trkpt>
      <trkpt lat="49.18546" lon="5.66378">
        <ele>200.57</ele>
        <time>2021-07-23T13:24:16Z</time>
      </trkpt>
      <trkpt lat="49.18559" lon="5.66385">
        <ele>200.09</ele>
        <time>2021-07-23T13:24:17Z</time>
      </trkpt>
      <trkpt lat="49.18559" lon="5.66385">
        <ele>200.09</ele>
        <time>2021-07-23T13:24:18Z</time>
      </trkpt>
      <trkpt lat="49.18574" lon="5.66378">
        <ele>200.09</ele>
        <time>2021-07-23T13:24:19Z</time>
      </trkpt>
      <trkpt lat="49.18579" lon="5.66373">
        <ele>199.61</ele>
        <time>2021-07-23T13:24:20Z</time>
      </trkpt>
      <trkpt lat="49.18579" lon="5.66373">
        <ele>199.61</ele>
        <time>2021-07-23T13:24:21Z</time>
      </trkpt>
      <trkpt lat="49.18597" lon="5.6637">
        <ele>200.09</ele>
        <time>2021-07-23T13:24:25Z</time>
      </trkpt>
      <trkpt lat="49.18602" lon="5.66369">
        <ele>200.09</ele>
        <time>2021-07-23T13:24:26Z</time>
      </trkpt>
      <trkpt lat="49.18607" lon="5.66368">
        <ele>200.09</ele>
        <time>2021-07-23T13:24:27Z</time>
      </trkpt>
      <trkpt lat="49.18682" lon="5.66388">
        <ele>201.05</ele>
        <time>2021-07-23T13:24:35Z</time>
      </trkpt>
      <trkpt lat="49.18839" lon="5.66434">
        <ele>206.34</ele>
        <time>2021-07-23T13:24:46Z</time>
      </trkpt>
      <trkpt lat="49.19004" lon="5.6645">
        <ele>207.3</ele>
        <time>2021-07-23T13:24:56Z</time>
      </trkpt>
      <trkpt lat="49.19173" lon="5.66392">
        <ele>206.34</ele>
        <time>2021-07-23T13:25:05Z</time>
      </trkpt>
      <trkpt lat="49.19565" lon="5.66207">
        <ele>206.82</ele>
        <time>2021-07-23T13:25:25Z</time>
      </trkpt>
      <trkpt lat="49.20017" lon="5.65993">
        <ele>214.51</ele>
        <time>2021-07-23T13:25:49Z</time>
      </trkpt>
      <trkpt lat="49.20433" lon="5.65794">
        <ele>214.03</ele>
        <time>2021-07-23T13:26:10Z</time>
      </trkpt>
      <trkpt lat="49.20655" lon="5.65687">
        <ele>217.88</ele>
        <time>2021-07-23T13:26:22Z</time>
      </trkpt>
      <trkpt lat="49.20719" lon="5.65663">
        <ele>218.36</ele>
        <time>2021-07-23T13:26:28Z</time>
      </trkpt>
      <trkpt lat="49.20731" lon="5.65665">
        <ele>218.84</ele>
        <time>2021-07-23T13:26:36Z</time>
      </trkpt>
      <trkpt lat="49.2074" lon="5.65666">
        <ele>219.32</ele>
        <time>2021-07-23T13:26:38Z</time>
      </trkpt>
      <trkpt lat="49.20745" lon="5.65667">
        <ele>219.32</ele>
        <time>2021-07-23T13:26:39Z</time>
      </trkpt>
      <trkpt lat="49.2075" lon="5.65661">
        <ele>219.8</ele>
        <time>2021-07-23T13:26:40Z</time>
      </trkpt>
      <trkpt lat="49.20754" lon="5.65654">
        <ele>220.28</ele>
        <time>2021-07-23T13:26:41Z</time>
      </trkpt>
      <trkpt lat="49.20759" lon="5.65647">
        <ele>219.8</ele>
        <time>2021-07-23T13:26:42Z</time>
      </trkpt>
      <trkpt lat="49.20765" lon="5.6564">
        <ele>219.8</ele>
        <time>2021-07-23T13:26:43Z</time>
      </trkpt>
      <trkpt lat="49.20779" lon="5.65627">
        <ele>219.8</ele>
        <time>2021-07-23T13:26:44Z</time>
      </trkpt>
      <trkpt lat="49.20779" lon="5.65627">
        <ele>219.8</ele>
        <time>2021-07-23T13:26:45Z</time>
      </trkpt>
      <trkpt lat="49.209" lon="5.65557">
        <ele>218.36</ele>
        <time>2021-07-23T13:26:56Z</time>
      </trkpt>
      <trkpt lat="49.21129" lon="5.65432">
        <ele>220.28</ele>
        <time>2021-07-23T13:27:12Z</time>
      </trkpt>
      <trkpt lat="49.21437" lon="5.65262">
        <ele>226.53</ele>
        <time>2021-07-23T13:27:33Z</time>
      </trkpt>
      <trkpt lat="49.21654" lon="5.65141">
        <ele>227.01</ele>
        <time>2021-07-23T13:27:47Z</time>
      </trkpt>
      <trkpt lat="49.21725" lon="5.65103">
        <ele>226.05</ele>
        <time>2021-07-23T13:27:54Z</time>
      </trkpt>
      <trkpt lat="49.21759" lon="5.65101">
        <ele>226.53</ele>
        <time>2021-07-23T13:28:02Z</time>
      </trkpt>
      <trkpt lat="49.21763" lon="5.65102">
        <ele>226.05</ele>
        <time>2021-07-23T13:28:03Z</time>
      </trkpt>
      <trkpt lat="49.21768" lon="5.65103">
        <ele>226.05</ele>
        <time>2021-07-23T13:28:04Z</time>
      </trkpt>
      <trkpt lat="49.21773" lon="5.65096">
        <ele>226.05</ele>
        <time>2021-07-23T13:28:05Z</time>
      </trkpt>
      <trkpt lat="49.21775" lon="5.65089">
        <ele>226.05</ele>
        <time>2021-07-23T13:28:06Z</time>
      </trkpt>
      <trkpt lat="49.21779" lon="5.65081">
        <ele>226.53</ele>
        <time>2021-07-23T13:28:07Z</time>
      </trkpt>
      <trkpt lat="49.21784" lon="5.65071">
        <ele>226.53</ele>
        <time>2021-07-23T13:28:08Z</time>
      </trkpt>
      <trkpt lat="49.21789" lon="5.65061">
        <ele>227.01</ele>
        <time>2021-07-23T13:28:09Z</time>
      </trkpt>
      <trkpt lat="49.21795" lon="5.6505">
        <ele>227.97</ele>
        <time>2021-07-23T13:28:10Z</time>
      </trkpt>
      <trkpt lat="49.21887" lon="5.64955">
        <ele>229.41</ele>
        <time>2021-07-23T13:28:20Z</time>
      </trkpt>
      <trkpt lat="49.22002" lon="5.64837">
        <ele>230.85</ele>
        <time>2021-07-23T13:28:31Z</time>
      </trkpt>
      <trkpt lat="49.22029" lon="5.64813">
        <ele>231.33</ele>
        <time>2021-07-23T13:28:38Z</time>
      </trkpt>
      <trkpt lat="49.22043" lon="5.64807">
        <ele>230.85</ele>
        <time>2021-07-23T13:28:44Z</time>
      </trkpt>
      <trkpt lat="49.22047" lon="5.64805">
        <ele>230.85</ele>
        <time>2021-07-23T13:28:45Z</time>
      </trkpt>
      <trkpt lat="49.22051" lon="5.64803">
        <ele>230.85</ele>
        <time>2021-07-23T13:28:46Z</time>
      </trkpt>
      <trkpt lat="49.22055" lon="5.64803">
        <ele>230.85</ele>
        <time>2021-07-23T13:28:47Z</time>
      </trkpt>
      <trkpt lat="49.2206" lon="5.64803">
        <ele>230.85</ele>
        <time>2021-07-23T13:28:48Z</time>
      </trkpt>
      <trkpt lat="49.2207" lon="5.64805">
        <ele>230.85</ele>
        <time>2021-07-23T13:28:49Z</time>
      </trkpt>
      <trkpt lat="49.22075" lon="5.64795">
        <ele>231.33</ele>
        <time>2021-07-23T13:28:50Z</time>
      </trkpt>
      <trkpt lat="49.22075" lon="5.64795">
        <ele>231.33</ele>
        <time>2021-07-23T13:28:51Z</time>
      </trkpt>
      <trkpt lat="49.22079" lon="5.64788">
        <ele>230.85</ele>
        <time>2021-07-23T13:28:52Z</time>
      </trkpt>
      <trkpt lat="49.22081" lon="5.64783">
        <ele>230.85</ele>
        <time>2021-07-23T13:28:53Z</time>
      </trkpt>
      <trkpt lat="49.2208" lon="5.64776">
        <ele>229.89</ele>
        <time>2021-07-23T13:28:54Z</time>
      </trkpt>
      <trkpt lat="49.22077" lon="5.64767">
        <ele>229.41</ele>
        <time>2021-07-23T13:28:55Z</time>
      </trkpt>
      <trkpt lat="49.22075" lon="5.64758">
        <ele>228.93</ele>
        <time>2021-07-23T13:28:56Z</time>
      </trkpt>
      <trkpt lat="49.22072" lon="5.64754">
        <ele>228.93</ele>
        <time>2021-07-23T13:28:57Z</time>
      </trkpt>
      <trkpt lat="49.22065" lon="5.64752">
        <ele>228.45</ele>
        <time>2021-07-23T13:28:58Z</time>
      </trkpt>
      <trkpt lat="49.22058" lon="5.64749">
        <ele>228.45</ele>
        <time>2021-07-23T13:28:59Z</time>
      </trkpt>
      <trkpt lat="49.22051" lon="5.64745">
        <ele>227.97</ele>
        <time>2021-07-23T13:29:00Z</time>
      </trkpt>
      <trkpt lat="49.22044" lon="5.64742">
        <ele>227.49</ele>
        <time>2021-07-23T13:29:01Z</time>
      </trkpt>
      <trkpt lat="49.22029" lon="5.64733">
        <ele>227.01</ele>
        <time>2021-07-23T13:29:02Z</time>
      </trkpt>
      <trkpt lat="49.22022" lon="5.64725">
        <ele>226.53</ele>
        <time>2021-07-23T13:29:03Z</time>
      </trkpt>
      <trkpt lat="49.21916" lon="5.64583">
        <ele>221.24</ele>
        <time>2021-07-23T13:29:16Z</time>
      </trkpt>
      <trkpt lat="49.21795" lon="5.64426">
        <ele>219.32</ele>
        <time>2021-07-23T13:29:32Z</time>
      </trkpt>
      <trkpt lat="49.21734" lon="5.64345">
        <ele>217.4</ele>
        <time>2021-07-23T13:29:45Z</time>
      </trkpt>
      <trkpt lat="49.21673" lon="5.64263">
        <ele>215.47</ele>
        <time>2021-07-23T13:29:59Z</time>
      </trkpt>
      <trkpt lat="49.21586" lon="5.64151">
        <ele>211.63</ele>
        <time>2021-07-23T13:30:13Z</time>
      </trkpt>
      <trkpt lat="49.21477" lon="5.64007">
        <ele>210.67</ele>
        <time>2021-07-23T13:30:30Z</time>
      </trkpt>
      <trkpt lat="49.21431" lon="5.63901">
        <ele>212.11</ele>
        <time>2021-07-23T13:30:42Z</time>
      </trkpt>
      <trkpt lat="49.21379" lon="5.63697">
        <ele>210.67</ele>
        <time>2021-07-23T13:30:59Z</time>
      </trkpt>
      <trkpt lat="49.21358" lon="5.63597">
        <ele>209.7</ele>
        <time>2021-07-23T13:31:13Z</time>
      </trkpt>
      <trkpt lat="49.21343" lon="5.63516">
        <ele>208.74</ele>
        <time>2021-07-23T13:31:29Z</time>
      </trkpt>
    </trkseg>
  </trk>
</gpx>